createdAt,value
2022-11-22T00:00:10.614Z,1.24
2022-11-22T00:02:37.073Z,1.26
2022-11-22T00:05:03.918Z,1.28
2022-11-22T00:07:30.405Z,1.28
2022-11-22T00:09:56.876Z,1.29
2022-11-22T00:12:23.416Z,1.29
2022-11-22T00:14:55.463Z,1.31
2022-11-22T00:17:23.213Z,1.35
2022-11-22T00:19:49.599Z,1.37
2022-11-22T00:22:16.281Z,1.38
2022-11-22T00:24:44.047Z,1.40
2022-11-22T00:27:10.408Z,1.43
2022-11-22T00:29:36.809Z,1.46
2022-11-22T00:32:03.543Z,1.44
2022-11-22T00:34:29.973Z,1.51
2022-11-22T00:36:56.432Z,1.54
2022-11-22T00:39:22.875Z,1.60
2022-11-22T00:41:49.263Z,1.59
2022-11-22T00:44:15.743Z,1.64
2022-11-22T00:46:42.150Z,1.65
2022-11-22T00:49:08.546Z,1.69
2022-11-22T00:51:34.987Z,1.67
2022-11-22T00:54:01.484Z,1.70
2022-11-22T00:56:28.328Z,1.69
2022-11-22T00:58:54.718Z,1.73
2022-11-22T01:01:21.172Z,1.74
2022-11-22T01:03:47.700Z,1.77
2022-11-22T01:06:14.078Z,1.77
2022-11-22T01:08:40.495Z,1.77
2022-11-22T01:11:06.871Z,1.77
2022-11-22T01:13:33.351Z,1.79
2022-11-22T01:16:05.935Z,1.79
2022-11-22T01:18:33.097Z,1.80
2022-11-22T01:20:59.480Z,1.81
2022-11-22T01:23:26.018Z,1.79
2022-11-22T01:25:52.463Z,1.80
2022-11-22T01:28:19.324Z,1.81
2022-11-22T01:30:49.570Z,1.82
2022-11-22T01:33:15.864Z,1.92
2022-11-22T01:35:42.835Z,1.84
2022-11-22T01:38:09.608Z,1.82
2022-11-22T01:40:36.075Z,1.82
2022-11-22T01:43:04.016Z,1.82
2022-11-22T01:45:30.391Z,1.81
2022-11-22T01:48:04.190Z,1.79
2022-11-22T01:50:35.173Z,1.84
2022-11-22T01:53:14.490Z,1.86
2022-11-22T01:55:41.812Z,1.85
2022-11-22T01:58:10.378Z,1.87
2022-11-22T02:00:38.755Z,1.89
2022-11-22T02:03:09.627Z,1.89
2022-11-22T02:05:36.246Z,1.90
2022-11-22T02:08:27.270Z,1.94
2022-11-22T02:10:56.287Z,1.94
2022-11-22T02:13:24.438Z,1.95
2022-11-22T02:15:52.250Z,1.96
2022-11-22T02:18:19.330Z,1.94
2022-11-22T02:20:45.918Z,1.95
2022-11-22T02:23:31.641Z,1.98
2022-11-22T02:25:59.983Z,1.99
2022-11-22T02:28:30.145Z,2.00
2022-11-22T02:30:56.840Z,2.08
2022-11-22T02:33:23.297Z,1.99
2022-11-22T02:35:49.882Z,2.00
2022-11-22T02:38:25.996Z,2.02
2022-11-22T02:40:57.032Z,2.03
2022-11-22T02:43:45.707Z,2.01
2022-11-22T02:46:23.424Z,2.00
2022-11-22T02:48:50.000Z,2.01
2022-11-22T02:51:19.696Z,2.00
2022-11-22T02:53:48.033Z,2.01
2022-11-22T02:56:15.554Z,2.02
2022-11-22T02:58:43.461Z,2.03
2022-11-22T03:01:10.435Z,2.00
2022-11-22T03:03:38.414Z,2.03
2022-11-22T03:06:04.901Z,2.04
2022-11-22T03:08:31.339Z,2.05
2022-11-22T03:10:59.015Z,2.06
2022-11-22T03:13:26.210Z,2.09
2022-11-22T03:15:52.939Z,2.00
2022-11-22T03:18:19.467Z,2.05
2022-11-22T03:20:45.892Z,2.10
2022-11-22T03:23:12.406Z,2.09
2022-11-22T03:25:39.555Z,2.05
2022-11-22T03:28:06.362Z,2.09
2022-11-22T03:30:32.908Z,2.09
2022-11-22T03:32:59.282Z,2.11
2022-11-22T03:35:25.671Z,2.10
2022-11-22T03:37:52.127Z,2.12
2022-11-22T03:40:18.540Z,2.10
2022-11-22T03:42:44.981Z,2.12
2022-11-22T03:45:11.396Z,2.14
2022-11-22T03:47:37.789Z,2.17
2022-11-22T03:50:05.328Z,2.16
2022-11-22T03:52:31.744Z,2.18
2022-11-22T03:54:58.155Z,2.17
2022-11-22T03:57:24.570Z,2.15
2022-11-22T03:59:50.970Z,2.16
2022-11-22T04:02:17.476Z,2.19
2022-11-22T04:04:44.223Z,2.19
2022-11-22T04:07:10.695Z,2.11
2022-11-22T04:09:37.208Z,2.20
2022-11-22T04:12:04.056Z,2.19
2022-11-22T04:14:49.161Z,2.20
2022-11-22T04:17:35.798Z,2.20
2022-11-22T04:20:20.755Z,2.20
2022-11-22T04:22:56.021Z,2.23
2022-11-22T04:25:22.727Z,2.22
2022-11-22T04:27:49.133Z,2.21
2022-11-22T04:30:20.289Z,2.24
2022-11-22T04:32:47.462Z,2.26
2022-11-22T04:35:16.739Z,2.28
2022-11-22T04:37:43.249Z,2.27
2022-11-22T04:40:10.349Z,2.30
2022-11-22T04:42:55.367Z,2.31
2022-11-22T04:45:21.831Z,2.33
2022-11-22T04:48:00.298Z,2.34
2022-11-22T04:50:47.353Z,2.35
2022-11-22T04:53:14.968Z,2.36
2022-11-22T04:55:42.572Z,2.35
2022-11-22T04:58:09.325Z,2.37
2022-11-22T05:00:36.043Z,2.35
2022-11-22T05:03:03.801Z,2.41
2022-11-22T05:05:30.450Z,2.43
2022-11-22T05:07:58.510Z,2.44
2022-11-22T05:10:27.032Z,2.46
2022-11-22T05:12:54.363Z,2.44
2022-11-22T05:15:20.810Z,2.47
2022-11-22T05:17:47.303Z,2.46
2022-11-22T05:20:14.033Z,2.50
2022-11-22T05:22:59.237Z,2.54
2022-11-22T05:25:25.966Z,2.53
2022-11-22T05:27:55.319Z,2.53
2022-11-22T05:30:21.748Z,2.51
2022-11-22T05:32:48.226Z,2.58
2022-11-22T05:35:14.728Z,2.56
2022-11-22T05:37:41.131Z,2.60
2022-11-22T05:40:08.264Z,2.62
2022-11-22T05:42:35.498Z,2.64
2022-11-22T05:45:01.943Z,2.67
2022-11-22T05:47:28.430Z,2.66
2022-11-22T05:49:54.799Z,2.68
2022-11-22T05:52:21.332Z,2.67
2022-11-22T05:54:47.750Z,2.72
2022-11-22T05:57:14.123Z,2.72
2022-11-22T05:59:44.126Z,2.75
2022-11-22T06:02:10.741Z,2.83
2022-11-22T06:04:37.210Z,2.79
2022-11-22T06:07:08.487Z,2.75
2022-11-22T06:09:36.686Z,2.79
2022-11-22T06:12:03.813Z,2.79
2022-11-22T06:14:30.224Z,2.80
2022-11-22T06:16:56.811Z,2.78
2022-11-22T06:19:23.220Z,2.80
2022-11-22T06:21:49.690Z,2.84
2022-11-22T06:24:16.123Z,2.81
2022-11-22T06:26:42.516Z,2.84
2022-11-22T06:29:08.984Z,2.85
2022-11-22T06:31:35.582Z,2.83
2022-11-22T06:34:02.006Z,2.80
2022-11-22T06:36:30.488Z,2.80
2022-11-22T06:38:57.898Z,2.87
2022-11-22T06:41:26.898Z,2.88
2022-11-22T06:43:57.417Z,2.88
2022-11-22T06:46:25.393Z,2.89
2022-11-22T06:48:52.453Z,2.87
2022-11-22T06:51:27.103Z,2.90
2022-11-22T06:53:57.579Z,2.91
2022-11-22T06:56:27.512Z,2.92
2022-11-22T06:58:54.636Z,2.92
2022-11-22T07:01:28.768Z,2.93
2022-11-22T07:03:58.331Z,2.94
2022-11-22T07:06:30.905Z,2.93
2022-11-22T07:08:57.516Z,2.94
2022-11-22T07:11:26.511Z,2.94
2022-11-22T07:13:54.048Z,2.95
2022-11-22T07:16:21.817Z,2.96
2022-11-22T07:18:48.949Z,2.95
2022-11-22T07:21:21.230Z,2.96
2022-11-22T07:23:49.371Z,2.95
2022-11-22T07:26:17.099Z,2.95
2022-11-22T07:28:44.273Z,2.98
2022-11-22T07:31:13.322Z,2.98
2022-11-22T07:33:40.262Z,2.98
2022-11-22T07:36:12.596Z,2.97
2022-11-22T07:38:39.514Z,2.96
2022-11-22T07:41:07.032Z,2.99
2022-11-22T07:43:34.061Z,2.93
2022-11-22T07:46:05.594Z,2.99
2022-11-22T07:48:32.793Z,3.00
2022-11-22T07:51:05.047Z,2.91
2022-11-22T07:53:31.989Z,3.01
2022-11-22T07:56:04.971Z,3.03
2022-11-22T07:58:32.293Z,3.01
2022-11-22T08:00:58.889Z,3.04
2022-11-22T08:03:28.818Z,3.05
2022-11-22T08:06:03.554Z,3.08
2022-11-22T08:08:34.536Z,3.02
2022-11-22T08:11:01.571Z,3.05
2022-11-22T08:13:28.921Z,3.10
2022-11-22T08:15:57.537Z,3.12
2022-11-22T08:18:26.093Z,3.14
2022-11-22T08:21:01.533Z,3.13
2022-11-22T08:23:28.063Z,3.16
2022-11-22T08:25:58.951Z,3.18
2022-11-22T08:28:26.184Z,3.17
2022-11-22T08:30:58.391Z,3.16
2022-11-22T08:33:24.866Z,3.23
2022-11-22T08:35:51.877Z,3.23
2022-11-22T08:38:18.520Z,3.24
2022-11-22T08:40:45.261Z,3.26
2022-11-22T08:43:11.904Z,3.22
2022-11-22T08:45:39.084Z,3.26
2022-11-22T08:48:05.907Z,3.26
2022-11-22T08:50:32.551Z,3.28
2022-11-22T08:53:01.430Z,3.30
2022-11-22T08:55:27.894Z,3.32
2022-11-22T08:57:58.926Z,3.32
2022-11-22T09:00:30.069Z,3.29
2022-11-22T09:02:59.470Z,3.35
2022-11-22T09:05:25.998Z,3.40
2022-11-22T09:10:38.850Z,3.44
2022-11-22T09:13:05.313Z,3.48
2022-11-22T09:15:31.919Z,3.47
2022-11-22T09:18:02.923Z,3.47
2022-11-22T09:20:29.392Z,3.46
2022-11-22T09:22:55.818Z,3.45
2022-11-22T09:25:22.458Z,3.48
2022-11-22T09:27:48.884Z,3.50
2022-11-22T09:30:15.666Z,3.51
2022-11-22T09:32:44.407Z,3.46
2022-11-22T09:35:10.901Z,3.49
2022-11-22T09:37:37.315Z,3.54
2022-11-22T09:40:04.079Z,3.53
2022-11-22T09:42:50.117Z,3.57
2022-11-22T09:45:25.395Z,3.57
2022-11-22T09:47:51.985Z,3.59
2022-11-22T09:50:57.677Z,3.62
2022-11-22T09:53:35.224Z,3.63
2022-11-22T09:56:08.380Z,3.63
2022-11-22T09:58:44.051Z,3.65
2022-11-22T10:01:12.918Z,3.66
2022-11-22T10:03:48.794Z,3.67
2022-11-22T10:06:27.429Z,3.72
2022-11-22T10:09:18.430Z,3.75
2022-11-22T10:12:11.287Z,3.76
2022-11-22T10:15:05.925Z,3.88
2022-11-22T10:17:38.843Z,3.87
2022-11-22T10:20:17.024Z,3.93
2022-11-22T10:22:43.861Z,3.97
2022-11-22T10:25:21.172Z,4.02
2022-11-22T10:28:00.364Z,3.99
2022-11-22T10:30:34.712Z,4.04
2022-11-22T10:33:17.050Z,4.15
2022-11-22T10:35:58.457Z,4.18
2022-11-22T10:38:47.256Z,4.18
2022-11-22T10:41:39.888Z,4.21
2022-11-22T10:44:35.938Z,4.24
2022-11-22T10:47:09.855Z,4.20
2022-11-22T10:50:03.512Z,4.22
2022-11-22T10:52:38.059Z,4.24
2022-11-22T10:55:25.773Z,4.28
2022-11-22T10:58:15.190Z,4.28
2022-11-22T11:00:47.569Z,4.34
2022-11-22T11:03:26.192Z,4.39
2022-11-22T11:07:04.601Z,4.47
2022-11-22T11:12:40.005Z,4.59
2022-11-22T11:15:28.548Z,4.60
2022-11-22T11:18:17.530Z,4.68
2022-11-22T11:20:46.540Z,4.67
2022-11-22T11:23:15.513Z,4.70
2022-11-22T11:25:47.574Z,4.71
2022-11-22T11:28:26.710Z,4.71
2022-11-22T11:31:07.367Z,4.72
2022-11-22T11:33:38.342Z,4.74
2022-11-22T11:36:19.306Z,4.76
2022-11-22T11:38:45.701Z,4.79
2022-11-22T11:41:36.151Z,4.84
2022-11-22T11:44:05.841Z,4.77
2022-11-22T11:46:52.499Z,4.91
2022-11-22T11:49:24.263Z,4.91
2022-11-22T11:51:56.407Z,4.92
2022-11-22T11:54:29.628Z,4.93
2022-11-22T11:56:57.767Z,4.97
2022-11-22T11:59:46.550Z,5.04
2022-11-22T12:02:25.069Z,5.05
2022-11-22T12:04:54.269Z,5.06
2022-11-22T12:07:27.655Z,5.11
2022-11-22T12:09:55.763Z,5.14
2022-11-22T12:12:43.869Z,5.19
2022-11-22T12:15:35.232Z,5.23
2022-11-22T12:18:12.269Z,5.27
2022-11-22T12:21:07.465Z,5.35
2022-11-22T12:23:50.972Z,5.38
2022-11-22T12:26:18.829Z,5.41
2022-11-22T12:28:46.599Z,5.43
2022-11-22T12:31:24.078Z,5.48
2022-11-22T12:33:56.285Z,5.51
2022-11-22T12:36:32.707Z,5.54
2022-11-22T12:39:02.729Z,5.56
2022-11-22T12:41:33.104Z,5.52
2022-11-22T12:44:04.788Z,5.55
2022-11-22T12:46:42.176Z,5.57
2022-11-22T12:49:29.929Z,5.55
2022-11-22T12:52:04.050Z,5.48
2022-11-22T12:54:37.256Z,5.53
2022-11-22T12:57:15.806Z,5.54
2022-11-22T13:00:03.029Z,5.56
2022-11-22T13:02:37.406Z,5.55
2022-11-22T13:05:23.730Z,5.59
2022-11-22T13:08:02.849Z,5.57
2022-11-22T13:10:38.603Z,5.57
2022-11-22T13:13:13.219Z,5.62
2022-11-22T13:15:40.783Z,5.64
2022-11-22T13:18:09.768Z,5.67
2022-11-22T13:20:43.199Z,5.69
2022-11-22T13:23:37.376Z,5.72
2022-11-22T13:26:15.152Z,5.67
2022-11-22T13:28:43.445Z,5.74
2022-11-22T13:31:09.799Z,5.77
2022-11-22T13:33:39.505Z,5.71
2022-11-22T13:36:24.725Z,5.71
2022-11-22T13:38:59.480Z,5.68
2022-11-22T13:41:37.139Z,5.58
2022-11-22T13:44:39.148Z,5.65
2022-11-22T13:47:28.370Z,5.61
2022-11-22T13:49:54.914Z,5.57
2022-11-22T13:52:21.274Z,5.53
2022-11-22T13:54:47.861Z,5.53
2022-11-22T13:57:37.406Z,5.54
2022-11-22T14:00:09.972Z,5.52
2022-11-22T14:02:37.871Z,5.51
2022-11-22T14:05:18.291Z,5.51
2022-11-22T14:07:45.422Z,5.52
2022-11-22T14:10:32.837Z,5.58
2022-11-22T14:13:29.788Z,5.60
2022-11-22T14:16:11.462Z,5.61
2022-11-22T14:18:54.743Z,5.64
2022-11-22T14:21:42.395Z,5.63
2022-11-22T14:24:08.756Z,5.52
2022-11-22T14:26:52.543Z,5.65
2022-11-22T14:29:58.354Z,5.65
2022-11-22T14:32:26.457Z,5.57
2022-11-22T14:35:05.024Z,5.64
2022-11-22T14:37:31.862Z,5.60
2022-11-22T14:40:04.269Z,5.59
2022-11-22T14:42:36.964Z,5.58
2022-11-22T14:45:12.484Z,5.56
2022-11-22T14:47:53.118Z,5.54
2022-11-22T14:50:45.892Z,5.51
2022-11-22T14:53:21.703Z,5.48
2022-11-22T14:55:49.221Z,5.43
2022-11-22T14:58:23.033Z,5.40
2022-11-22T15:01:15.135Z,5.36
2022-11-22T15:09:12.787Z,5.34
2022-11-22T15:09:19.843Z,5.33
2022-11-22T15:10:33.268Z,5.27
2022-11-22T15:13:15.563Z,5.24
2022-11-22T15:59:39.440Z,4.94
2022-11-22T16:02:21.178Z,4.92
2022-11-22T16:06:06.459Z,4.90
2022-11-22T16:07:40.427Z,4.98
2022-11-22T16:10:37.590Z,4.91
2022-11-22T16:13:34.347Z,4.87
2022-11-22T16:16:12.627Z,4.84
2022-11-22T16:18:40.146Z,4.83
2022-11-22T16:21:20.378Z,4.81
2022-11-22T16:23:47.022Z,4.90
2022-11-22T16:26:22.119Z,4.80
2022-11-22T16:28:51.406Z,4.74
2022-11-22T16:31:20.143Z,4.68
2022-11-22T16:33:46.655Z,4.69
2022-11-22T16:36:15.075Z,4.65
2022-11-22T16:38:42.622Z,4.69
2022-11-22T16:41:29.388Z,4.74
2022-11-22T16:44:06.281Z,4.70
2022-11-22T16:46:32.774Z,4.67
2022-11-22T16:48:59.234Z,4.70
2022-11-22T16:51:30.558Z,4.69
2022-11-22T16:53:59.811Z,4.67
2022-11-22T16:56:28.974Z,4.64
2022-11-22T16:58:57.065Z,4.67
2022-11-22T17:01:26.480Z,4.66
2022-11-22T17:03:56.293Z,4.70
2022-11-22T17:06:27.618Z,4.71
2022-11-22T17:08:56.126Z,4.64
2022-11-22T17:11:24.699Z,4.65
2022-11-22T17:13:51.358Z,4.66
2022-11-22T17:16:17.879Z,4.64
2022-11-22T17:18:45.807Z,4.64
2022-11-22T17:21:26.153Z,4.67
2022-11-22T17:23:56.061Z,4.58
2022-11-22T17:26:22.813Z,4.63
2022-11-22T17:28:49.245Z,4.65
2022-11-22T17:31:18.054Z,4.67
2022-11-22T17:33:44.803Z,4.65
2022-11-22T17:36:22.145Z,4.66
2022-11-22T17:38:48.602Z,4.62
2022-11-22T17:41:15.036Z,4.64
2022-11-22T17:43:41.603Z,4.61
2022-11-22T17:46:08.123Z,4.53
2022-11-22T17:48:34.614Z,4.58
2022-11-22T17:51:08.887Z,4.58
2022-11-22T17:53:35.737Z,4.51
2022-11-22T17:56:10.552Z,4.50
2022-11-22T17:58:38.539Z,4.50
2022-11-22T18:01:21.060Z,4.47
2022-11-22T18:03:48.319Z,4.50
2022-11-22T18:06:16.655Z,4.49
2022-11-22T18:08:46.952Z,4.47
2022-11-22T18:11:14.876Z,4.42
2022-11-22T18:13:41.785Z,4.44
2022-11-22T18:16:12.150Z,4.44
2022-11-22T18:21:30.435Z,4.43
2022-11-22T18:23:58.323Z,4.41
2022-11-22T18:26:41.400Z,4.38
2022-11-22T18:29:40.745Z,4.35
2022-11-22T18:31:56.419Z,4.33
2022-11-22T18:34:23.227Z,4.32
2022-11-22T18:36:55.928Z,4.29
2022-11-22T18:39:26.177Z,4.25
2022-11-22T18:41:52.570Z,4.26
2022-11-22T18:44:19.520Z,4.17
2022-11-22T18:46:46.775Z,4.19
2022-11-22T18:49:13.247Z,4.14
2022-11-22T18:51:39.919Z,4.15
2022-11-22T18:54:06.382Z,4.08
2022-11-22T18:56:37.718Z,4.11
2022-11-22T18:59:06.171Z,4.05
2022-11-22T19:01:34.508Z,4.03
2022-11-22T19:04:01.721Z,4.05
2022-11-22T19:06:28.372Z,4.04
2022-11-22T19:08:55.308Z,4.02
2022-11-22T19:11:22.026Z,4.00
2022-11-22T19:13:48.487Z,4.00
2022-11-22T19:16:17.273Z,4.02
2022-11-22T19:18:44.957Z,4.02
2022-11-22T19:21:14.502Z,4.02
2022-11-22T19:23:41.219Z,4.00
2022-11-22T19:26:10.694Z,4.04
2022-11-22T19:28:37.607Z,4.05
2022-11-22T19:31:07.711Z,4.08
2022-11-22T19:33:34.797Z,4.08
2022-11-22T19:36:06.532Z,4.09
2022-11-22T19:38:33.239Z,4.14
2022-11-22T19:40:59.748Z,4.11
2022-11-22T19:43:26.159Z,4.13
2022-11-22T19:45:52.602Z,4.13
2022-11-22T19:48:19.129Z,4.13
2022-11-22T19:50:45.904Z,4.12
2022-11-22T19:53:12.339Z,4.12
2022-11-22T19:55:45.171Z,4.11
2022-11-22T19:58:12.085Z,4.10
2022-11-22T20:00:38.596Z,4.10
2022-11-22T20:03:05.015Z,4.08
2022-11-22T20:05:32.525Z,4.03
2022-11-22T20:07:59.431Z,4.05
2022-11-22T20:10:25.969Z,4.06
2022-11-22T20:12:52.462Z,4.06
2022-11-22T20:15:19.068Z,4.02
2022-11-22T20:17:45.542Z,3.99
2022-11-22T20:20:11.969Z,3.97
2022-11-22T20:22:38.341Z,4.05
2022-11-22T20:25:06.027Z,4.02
2022-11-22T20:27:32.655Z,4.03
2022-11-22T20:30:01.335Z,4.01
2022-11-22T20:32:28.914Z,4.02
2022-11-22T20:34:55.299Z,3.95
2022-11-22T20:37:22.011Z,3.97
2022-11-22T20:39:48.442Z,3.94
2022-11-22T20:45:01.498Z,3.88
2022-11-22T20:47:27.899Z,3.87
2022-11-22T20:49:54.293Z,3.81
2022-11-22T20:52:20.772Z,3.80
2022-11-22T20:54:47.258Z,3.74
2022-11-22T20:57:13.850Z,3.75
2022-11-22T20:59:40.296Z,3.73
2022-11-22T21:02:09.316Z,3.71
2022-11-22T21:04:36.167Z,3.67
2022-11-22T21:07:02.666Z,3.65
2022-11-22T21:09:29.225Z,3.64
2022-11-22T21:11:55.943Z,3.64
2022-11-22T21:14:22.338Z,3.61
2022-11-22T21:16:48.777Z,3.56
2022-11-22T21:19:15.300Z,3.58
2022-11-22T21:21:41.705Z,3.53
2022-11-22T21:24:11.574Z,3.54
2022-11-22T21:26:38.005Z,3.52
2022-11-22T21:29:12.895Z,3.49
2022-11-22T21:31:42.297Z,3.44
2022-11-22T21:34:09.239Z,3.42
2022-11-22T21:36:35.681Z,3.39
2022-11-22T21:39:02.097Z,3.36
2022-11-22T21:41:43.831Z,3.29
2022-11-22T21:44:10.813Z,3.24
2022-11-22T21:46:38.078Z,3.26
2022-11-22T21:49:04.638Z,3.27
2022-11-22T21:51:32.020Z,3.26
2022-11-22T21:54:02.160Z,3.29
2022-11-22T21:56:28.787Z,3.31
2022-11-22T21:58:55.334Z,3.32
2022-11-22T22:01:22.521Z,3.34
2022-11-22T22:03:49.184Z,3.35
2022-11-22T22:06:15.669Z,3.38
2022-11-22T22:08:42.439Z,3.42
2022-11-22T22:11:08.857Z,3.47
2022-11-22T22:13:35.416Z,3.48
2022-11-22T22:16:06.625Z,3.59
2022-11-22T22:18:35.559Z,3.64
2022-11-22T22:21:03.941Z,3.67
2022-11-22T22:23:30.768Z,3.76
2022-11-22T22:26:02.152Z,3.80
2022-11-22T22:28:30.225Z,3.78
2022-11-22T22:31:10.854Z,3.89
2022-11-22T22:33:39.655Z,3.93
2022-11-22T22:36:07.329Z,3.93
2022-11-22T22:38:34.604Z,3.96
2022-11-22T22:41:03.696Z,4.03
2022-11-22T22:43:32.785Z,4.04
2022-11-22T22:46:06.496Z,4.06
2022-11-22T22:48:33.927Z,4.06
2022-11-22T22:51:05.440Z,4.03
2022-11-22T22:53:31.907Z,4.11
2022-11-22T22:55:58.468Z,4.14
2022-11-22T22:58:24.843Z,4.16
2022-11-22T23:00:51.273Z,4.19
2022-11-22T23:03:17.787Z,4.18
2022-11-22T23:05:45.019Z,4.23
2022-11-22T23:08:11.596Z,4.28
2022-11-22T23:10:38.822Z,4.33
2022-11-22T23:13:05.707Z,4.37
2022-11-22T23:15:51.123Z,4.41
2022-11-22T23:18:18.618Z,4.44
2022-11-22T23:20:44.989Z,4.47
2022-11-22T23:23:11.388Z,4.49
2022-11-22T23:25:37.841Z,4.48
2022-11-22T23:28:04.493Z,4.56
2022-11-22T23:30:30.918Z,4.56
2022-11-22T23:32:57.436Z,4.60
2022-11-22T23:35:23.835Z,4.62
2022-11-22T23:37:50.222Z,4.66
2022-11-22T23:40:16.892Z,4.68
2022-11-22T23:42:43.260Z,4.71
2022-11-22T23:45:10.050Z,4.70
2022-11-22T23:47:36.435Z,4.82
2022-11-22T23:50:03.341Z,4.82
2022-11-22T23:52:29.927Z,4.84
2022-11-22T23:54:56.377Z,4.87
2022-11-22T23:57:22.780Z,4.87
2022-11-22T23:59:49.176Z,4.88
